sensor_id;sensor_type;location;lat;lon;timestamp;P1;durP1;ratioP1;P2;durP2;ratioP2
25023;SDS011;13033;50.936;5.334;2023-11-21T00:00:12;64.80;;;25.25;;
25023;SDS011;13033;50.936;5.334;2023-11-21T00:02:39;69.75;;;25.13;;
25023;SDS011;13033;50.936;5.334;2023-11-21T00:05:09;69.22;;;24.65;;
25023;SDS011;13033;50.936;5.334;2023-11-21T00:07:36;59.30;;;23.02;;
25023;SDS011;13033;50.936;5.334;2023-11-21T00:10:02;59.38;;;22.83;;
25023;SDS011;13033;50.936;5.334;2023-11-21T00:12:30;62.42;;;23.48;;
25023;SDS011;13033;50.936;5.334;2023-11-21T00:14:56;64.07;;;23.05;;
25023;SDS011;13033;50.936;5.334;2023-11-21T00:17:22;59.17;;;22.13;;
25023;SDS011;13033;50.936;5.334;2023-11-21T00:19:49;55.17;;;20.77;;
25023;SDS011;13033;50.936;5.334;2023-11-21T00:22:17;62.88;;;22.35;;
25023;SDS011;13033;50.936;5.334;2023-11-21T00:24:43;57.92;;;20.73;;
25023;SDS011;13033;50.936;5.334;2023-11-21T00:27:09;57.58;;;20.60;;
25023;SDS011;13033;50.936;5.334;2023-11-21T00:29:34;49.55;;;19.83;;
25023;SDS011;13033;50.936;5.334;2023-11-21T00:32:00;57.05;;;20.90;;
25023;SDS011;13033;50.936;5.334;2023-11-21T00:34:26;52.10;;;19.98;;
25023;SDS011;13033;50.936;5.334;2023-11-21T00:36:52;51.38;;;19.60;;
25023;SDS011;13033;50.936;5.334;2023-11-21T00:39:17;50.38;;;20.77;;
25023;SDS011;13033;50.936;5.334;2023-11-21T00:41:43;59.25;;;20.95;;
25023;SDS011;13033;50.936;5.334;2023-11-21T00:44:10;54.60;;;19.58;;
25023;SDS011;13033;50.936;5.334;2023-11-21T00:46:36;52.97;;;20.00;;
25023;SDS011;13033;50.936;5.334;2023-11-21T00:49:02;52.58;;;20.92;;
25023;SDS011;13033;50.936;5.334;2023-11-21T00:51:29;48.90;;;20.67;;
25023;SDS011;13033;50.936;5.334;2023-11-21T00:53:55;48.55;;;20.08;;
25023;SDS011;13033;50.936;5.334;2023-11-21T00:56:21;46.65;;;19.98;;
25023;SDS011;13033;50.936;5.334;2023-11-21T00:58:47;47.35;;;19.98;;
25023;SDS011;13033;50.936;5.334;2023-11-21T01:01:15;58.63;;;21.52;;
25023;SDS011;13033;50.936;5.334;2023-11-21T01:03:41;50.00;;;20.77;;
25023;SDS011;13033;50.936;5.334;2023-11-21T01:06:07;48.13;;;20.92;;
25023;SDS011;13033;50.936;5.334;2023-11-21T01:08:34;48.72;;;20.90;;
25023;SDS011;13033;50.936;5.334;2023-11-21T01:11:00;46.13;;;19.85;;
25023;SDS011;13033;50.936;5.334;2023-11-21T01:13:27;45.15;;;20.48;;
25023;SDS011;13033;50.936;5.334;2023-11-21T01:15:53;45.95;;;20.17;;
25023;SDS011;13033;50.936;5.334;2023-11-21T01:18:19;46.17;;;20.27;;
25023;SDS011;13033;50.936;5.334;2023-11-21T01:20:45;51.85;;;21.92;;
25023;SDS011;13033;50.936;5.334;2023-11-21T01:23:12;47.47;;;20.45;;
25023;SDS011;13033;50.936;5.334;2023-11-21T01:25:38;48.90;;;21.42;;
25023;SDS011;13033;50.936;5.334;2023-11-21T01:28:03;50.17;;;21.73;;
25023;SDS011;13033;50.936;5.334;2023-11-21T01:30:29;48.58;;;20.90;;
25023;SDS011;13033;50.936;5.334;2023-11-21T01:32:55;51.20;;;21.52;;
25023;SDS011;13033;50.936;5.334;2023-11-21T01:35:21;52.30;;;22.08;;
25023;SDS011;13033;50.936;5.334;2023-11-21T01:37:47;50.90;;;23.02;;
25023;SDS011;13033;50.936;5.334;2023-11-21T01:40:13;49.42;;;21.42;;
25023;SDS011;13033;50.936;5.334;2023-11-21T01:42:39;50.80;;;22.33;;
25023;SDS011;13033;50.936;5.334;2023-11-21T01:45:06;51.78;;;21.58;;
25023;SDS011;13033;50.936;5.334;2023-11-21T01:47:33;54.28;;;22.02;;
25023;SDS011;13033;50.936;5.334;2023-11-21T01:50:00;52.83;;;22.35;;
25023;SDS011;13033;50.936;5.334;2023-11-21T01:52:29;56.95;;;22.15;;
25023;SDS011;13033;50.936;5.334;2023-11-21T01:54:55;53.05;;;22.40;;
25023;SDS011;13033;50.936;5.334;2023-11-21T01:57:21;63.25;;;22.40;;
25023;SDS011;13033;50.936;5.334;2023-11-21T01:59:47;60.50;;;24.13;;
25023;SDS011;13033;50.936;5.334;2023-11-21T02:02:15;62.25;;;24.55;;
25023;SDS011;13033;50.936;5.334;2023-11-21T02:04:40;62.63;;;23.63;;
25023;SDS011;13033;50.936;5.334;2023-11-21T02:07:06;59.28;;;23.48;;
25023;SDS011;13033;50.936;5.334;2023-11-21T02:09:32;58.90;;;22.30;;
25023;SDS011;13033;50.936;5.334;2023-11-21T02:11:59;63.50;;;23.00;;
25023;SDS011;13033;50.936;5.334;2023-11-21T02:14:25;64.72;;;23.20;;
25023;SDS011;13033;50.936;5.334;2023-11-21T02:16:53;63.97;;;23.48;;
25023;SDS011;13033;50.936;5.334;2023-11-21T02:19:20;59.17;;;24.13;;
25023;SDS011;13033;50.936;5.334;2023-11-21T02:21:54;58.38;;;24.00;;
25023;SDS011;13033;50.936;5.334;2023-11-21T02:24:24;64.47;;;24.90;;
25023;SDS011;13033;50.936;5.334;2023-11-21T02:26:50;63.85;;;24.77;;
25023;SDS011;13033;50.936;5.334;2023-11-21T02:29:17;63.38;;;24.05;;
25023;SDS011;13033;50.936;5.334;2023-11-21T02:31:44;68.97;;;25.80;;
25023;SDS011;13033;50.936;5.334;2023-11-21T02:34:16;73.65;;;26.92;;
25023;SDS011;13033;50.936;5.334;2023-11-21T02:36:43;66.18;;;25.48;;
25023;SDS011;13033;50.936;5.334;2023-11-21T02:39:10;66.20;;;25.42;;
25023;SDS011;13033;50.936;5.334;2023-11-21T02:41:39;74.78;;;27.90;;
25023;SDS011;13033;50.936;5.334;2023-11-21T02:44:05;78.65;;;26.30;;
25023;SDS011;13033;50.936;5.334;2023-11-21T02:46:35;75.90;;;27.17;;
25023;SDS011;13033;50.936;5.334;2023-11-21T02:49:02;73.03;;;25.27;;
25023;SDS011;13033;50.936;5.334;2023-11-21T02:51:29;75.85;;;28.85;;
25023;SDS011;13033;50.936;5.334;2023-11-21T02:53:55;82.18;;;28.15;;
25023;SDS011;13033;50.936;5.334;2023-11-21T02:56:24;77.45;;;27.77;;
25023;SDS011;13033;50.936;5.334;2023-11-21T02:58:51;79.13;;;28.45;;
25023;SDS011;13033;50.936;5.334;2023-11-21T03:01:17;82.47;;;27.52;;
25023;SDS011;13033;50.936;5.334;2023-11-21T03:03:43;96.00;;;30.50;;
25023;SDS011;13033;50.936;5.334;2023-11-21T03:06:08;93.95;;;31.50;;
25023;SDS011;13033;50.936;5.334;2023-11-21T03:08:34;94.75;;;31.20;;
25023;SDS011;13033;50.936;5.334;2023-11-21T03:11:00;87.60;;;31.50;;
25023;SDS011;13033;50.936;5.334;2023-11-21T03:13:28;92.95;;;29.95;;
25023;SDS011;13033;50.936;5.334;2023-11-21T03:15:55;100.57;;;34.42;;
25023;SDS011;13033;50.936;5.334;2023-11-21T03:18:21;99.88;;;32.55;;
25023;SDS011;13033;50.936;5.334;2023-11-21T03:20:49;106.65;;;32.30;;
25023;SDS011;13033;50.936;5.334;2023-11-21T03:23:17;103.40;;;32.72;;
25023;SDS011;13033;50.936;5.334;2023-11-21T03:25:42;102.82;;;32.33;;
25023;SDS011;13033;50.936;5.334;2023-11-21T03:28:08;96.13;;;31.63;;
25023;SDS011;13033;50.936;5.334;2023-11-21T03:30:34;99.15;;;31.63;;
25023;SDS011;13033;50.936;5.334;2023-11-21T03:33:00;106.60;;;33.50;;
25023;SDS011;13033;50.936;5.334;2023-11-21T03:35:26;102.43;;;31.67;;
25023;SDS011;13033;50.936;5.334;2023-11-21T03:37:52;118.35;;;35.28;;
25023;SDS011;13033;50.936;5.334;2023-11-21T03:40:17;102.82;;;32.63;;
25023;SDS011;13033;50.936;5.334;2023-11-21T03:42:43;103.60;;;30.95;;
25023;SDS011;13033;50.936;5.334;2023-11-21T03:45:09;102.30;;;30.92;;
25023;SDS011;13033;50.936;5.334;2023-11-21T03:47:35;108.32;;;32.92;;
25023;SDS011;13033;50.936;5.334;2023-11-21T03:50:00;108.97;;;33.75;;
25023;SDS011;13033;50.936;5.334;2023-11-21T03:52:26;111.65;;;33.45;;
25023;SDS011;13033;50.936;5.334;2023-11-21T03:54:53;112.18;;;34.55;;
25023;SDS011;13033;50.936;5.334;2023-11-21T03:57:20;114.95;;;34.55;;
25023;SDS011;13033;50.936;5.334;2023-11-21T03:59:46;115.85;;;34.00;;
25023;SDS011;13033;50.936;5.334;2023-11-21T04:02:12;107.82;;;32.63;;
25023;SDS011;13033;50.936;5.334;2023-11-21T04:04:38;111.60;;;32.42;;
25023;SDS011;13033;50.936;5.334;2023-11-21T04:07:04;115.07;;;33.78;;
25023;SDS011;13033;50.936;5.334;2023-11-21T04:09:30;109.95;;;32.90;;
25023;SDS011;13033;50.936;5.334;2023-11-21T04:11:56;111.60;;;31.10;;
25023;SDS011;13033;50.936;5.334;2023-11-21T04:14:22;130.45;;;33.67;;
25023;SDS011;13033;50.936;5.334;2023-11-21T04:16:48;118.28;;;33.17;;
25023;SDS011;13033;50.936;5.334;2023-11-21T04:19:14;109.45;;;32.55;;
25023;SDS011;13033;50.936;5.334;2023-11-21T04:21:40;106.13;;;31.30;;
25023;SDS011;13033;50.936;5.334;2023-11-21T04:24:06;111.43;;;32.05;;
25023;SDS011;13033;50.936;5.334;2023-11-21T04:26:32;125.10;;;30.38;;
25023;SDS011;13033;50.936;5.334;2023-11-21T04:28:58;117.57;;;32.58;;
25023;SDS011;13033;50.936;5.334;2023-11-21T04:31:24;123.32;;;29.25;;
25023;SDS011;13033;50.936;5.334;2023-11-21T04:33:49;125.40;;;30.23;;
25023;SDS011;13033;50.936;5.334;2023-11-21T04:36:15;105.47;;;31.10;;
25023;SDS011;13033;50.936;5.334;2023-11-21T04:38:41;127.30;;;33.20;;
25023;SDS011;13033;50.936;5.334;2023-11-21T04:41:07;120.57;;;34.10;;
25023;SDS011;13033;50.936;5.334;2023-11-21T04:43:33;122.45;;;33.30;;
25023;SDS011;13033;50.936;5.334;2023-11-21T04:45:58;128.63;;;34.42;;
25023;SDS011;13033;50.936;5.334;2023-11-21T04:48:25;117.80;;;30.05;;
25023;SDS011;13033;50.936;5.334;2023-11-21T04:50:50;120.00;;;30.48;;
25023;SDS011;13033;50.936;5.334;2023-11-21T04:53:16;122.80;;;31.08;;
25023;SDS011;13033;50.936;5.334;2023-11-21T04:55:42;115.00;;;30.63;;
25023;SDS011;13033;50.936;5.334;2023-11-21T04:58:09;136.25;;;30.00;;
25023;SDS011;13033;50.936;5.334;2023-11-21T05:00:35;117.32;;;29.15;;
25023;SDS011;13033;50.936;5.334;2023-11-21T05:03:04;123.25;;;30.60;;
25023;SDS011;13033;50.936;5.334;2023-11-21T05:05:32;143.30;;;29.80;;
25023;SDS011;13033;50.936;5.334;2023-11-21T05:07:59;130.45;;;29.35;;
25023;SDS011;13033;50.936;5.334;2023-11-21T05:10:25;115.53;;;29.02;;
25023;SDS011;13033;50.936;5.334;2023-11-21T05:12:50;118.35;;;29.15;;
25023;SDS011;13033;50.936;5.334;2023-11-21T05:15:16;115.28;;;30.30;;
25023;SDS011;13033;50.936;5.334;2023-11-21T05:17:43;115.90;;;28.38;;
25023;SDS011;13033;50.936;5.334;2023-11-21T05:20:10;146.00;;;30.20;;
25023;SDS011;13033;50.936;5.334;2023-11-21T05:22:38;152.93;;;31.90;;
25023;SDS011;13033;50.936;5.334;2023-11-21T05:25:05;118.90;;;29.98;;
25023;SDS011;13033;50.936;5.334;2023-11-21T05:27:35;121.47;;;30.77;;
25023;SDS011;13033;50.936;5.334;2023-11-21T05:30:01;135.73;;;31.67;;
25023;SDS011;13033;50.936;5.334;2023-11-21T05:32:30;162.65;;;31.05;;
25023;SDS011;13033;50.936;5.334;2023-11-21T05:34:56;123.65;;;30.25;;
25023;SDS011;13033;50.936;5.334;2023-11-21T05:37:21;275.27;;;35.83;;
25023;SDS011;13033;50.936;5.334;2023-11-21T05:39:48;129.95;;;31.67;;
25023;SDS011;13033;50.936;5.334;2023-11-21T05:42:14;128.13;;;32.13;;
25023;SDS011;13033;50.936;5.334;2023-11-21T05:44:43;149.63;;;31.70;;
25023;SDS011;13033;50.936;5.334;2023-11-21T05:47:08;124.40;;;31.45;;
25023;SDS011;13033;50.936;5.334;2023-11-21T05:49:35;130.85;;;31.77;;
25023;SDS011;13033;50.936;5.334;2023-11-21T05:52:01;125.82;;;31.73;;
25023;SDS011;13033;50.936;5.334;2023-11-21T05:54:26;127.95;;;31.83;;
25023;SDS011;13033;50.936;5.334;2023-11-21T05:56:52;138.73;;;32.90;;
25023;SDS011;13033;50.936;5.334;2023-11-21T05:59:18;125.50;;;31.10;;
25023;SDS011;13033;50.936;5.334;2023-11-21T06:01:45;121.78;;;29.58;;
25023;SDS011;13033;50.936;5.334;2023-11-21T06:04:11;133.98;;;30.40;;
25023;SDS011;13033;50.936;5.334;2023-11-21T06:06:38;96.30;;;28.58;;
25023;SDS011;13033;50.936;5.334;2023-11-21T06:09:04;117.38;;;29.27;;
25023;SDS011;13033;50.936;5.334;2023-11-21T06:11:34;104.63;;;30.40;;
25023;SDS011;13033;50.936;5.334;2023-11-21T06:14:00;96.50;;;28.65;;
25023;SDS011;13033;50.936;5.334;2023-11-21T06:16:26;99.85;;;29.92;;
25023;SDS011;13033;50.936;5.334;2023-11-21T06:18:52;105.70;;;29.98;;
25023;SDS011;13033;50.936;5.334;2023-11-21T06:21:18;109.43;;;29.40;;
25023;SDS011;13033;50.936;5.334;2023-11-21T06:23:44;100.63;;;29.50;;
25023;SDS011;13033;50.936;5.334;2023-11-21T06:26:10;110.30;;;28.77;;
25023;SDS011;13033;50.936;5.334;2023-11-21T06:28:35;120.10;;;29.38;;
25023;SDS011;13033;50.936;5.334;2023-11-21T06:31:01;119.78;;;28.85;;
25023;SDS011;13033;50.936;5.334;2023-11-21T06:33:32;130.50;;;28.70;;
25023;SDS011;13033;50.936;5.334;2023-11-21T06:35:58;140.80;;;28.60;;
25023;SDS011;13033;50.936;5.334;2023-11-21T06:38:27;120.22;;;28.80;;
25023;SDS011;13033;50.936;5.334;2023-11-21T06:40:55;126.00;;;30.25;;
25023;SDS011;13033;50.936;5.334;2023-11-21T06:43:21;166.20;;;30.48;;
25023;SDS011;13033;50.936;5.334;2023-11-21T06:45:47;120.07;;;30.23;;
25023;SDS011;13033;50.936;5.334;2023-11-21T06:48:13;120.95;;;29.50;;
25023;SDS011;13033;50.936;5.334;2023-11-21T06:50:39;121.45;;;30.80;;
25023;SDS011;13033;50.936;5.334;2023-11-21T06:53:04;108.03;;;29.83;;
25023;SDS011;13033;50.936;5.334;2023-11-21T06:55:32;113.38;;;30.35;;
25023;SDS011;13033;50.936;5.334;2023-11-21T06:57:58;112.40;;;29.45;;
25023;SDS011;13033;50.936;5.334;2023-11-21T07:00:25;108.50;;;30.65;;
25023;SDS011;13033;50.936;5.334;2023-11-21T07:02:52;111.75;;;30.52;;
25023;SDS011;13033;50.936;5.334;2023-11-21T07:05:19;115.32;;;30.80;;
25023;SDS011;13033;50.936;5.334;2023-11-21T07:07:46;98.97;;;29.95;;
25023;SDS011;13033;50.936;5.334;2023-11-21T07:10:13;104.32;;;30.17;;
25023;SDS011;13033;50.936;5.334;2023-11-21T07:12:39;106.18;;;31.42;;
25023;SDS011;13033;50.936;5.334;2023-11-21T07:15:05;111.43;;;33.03;;
25023;SDS011;13033;50.936;5.334;2023-11-21T07:17:34;111.70;;;30.67;;
25023;SDS011;13033;50.936;5.334;2023-11-21T07:20:01;100.47;;;30.98;;
25023;SDS011;13033;50.936;5.334;2023-11-21T07:22:28;115.85;;;32.17;;
25023;SDS011;13033;50.936;5.334;2023-11-21T07:24:53;111.00;;;30.45;;
25023;SDS011;13033;50.936;5.334;2023-11-21T07:27:21;95.50;;;29.85;;
25023;SDS011;13033;50.936;5.334;2023-11-21T07:29:47;108.35;;;31.25;;
25023;SDS011;13033;50.936;5.334;2023-11-21T07:32:13;101.20;;;31.70;;
25023;SDS011;13033;50.936;5.334;2023-11-21T07:34:39;111.57;;;32.45;;
25023;SDS011;13033;50.936;5.334;2023-11-21T07:37:06;103.95;;;30.63;;
25023;SDS011;13033;50.936;5.334;2023-11-21T07:39:33;116.50;;;33.30;;
25023;SDS011;13033;50.936;5.334;2023-11-21T07:42:00;105.03;;;32.13;;
25023;SDS011;13033;50.936;5.334;2023-11-21T07:44:27;105.88;;;32.08;;
25023;SDS011;13033;50.936;5.334;2023-11-21T07:46:54;110.93;;;32.38;;
25023;SDS011;13033;50.936;5.334;2023-11-21T07:49:22;99.03;;;31.55;;
25023;SDS011;13033;50.936;5.334;2023-11-21T07:51:48;109.72;;;33.20;;
25023;SDS011;13033;50.936;5.334;2023-11-21T07:54:14;102.80;;;30.88;;
25023;SDS011;13033;50.936;5.334;2023-11-21T07:56:40;102.00;;;31.48;;
25023;SDS011;13033;50.936;5.334;2023-11-21T07:59:06;107.88;;;30.92;;
25023;SDS011;13033;50.936;5.334;2023-11-21T08:01:32;94.00;;;29.02;;
25023;SDS011;13033;50.936;5.334;2023-11-21T08:03:58;98.18;;;31.58;;
25023;SDS011;13033;50.936;5.334;2023-11-21T08:06:26;97.28;;;32.28;;
25023;SDS011;13033;50.936;5.334;2023-11-21T08:08:53;101.55;;;30.48;;
25023;SDS011;13033;50.936;5.334;2023-11-21T08:11:19;89.53;;;29.98;;
25023;SDS011;13033;50.936;5.334;2023-11-21T08:13:46;89.47;;;30.63;;
25023;SDS011;13033;50.936;5.334;2023-11-21T08:16:12;88.72;;;29.23;;
25023;SDS011;13033;50.936;5.334;2023-11-21T08:18:37;90.47;;;28.75;;
25023;SDS011;13033;50.936;5.334;2023-11-21T08:21:05;91.55;;;28.42;;
25023;SDS011;13033;50.936;5.334;2023-11-21T08:23:30;82.40;;;28.20;;
25023;SDS011;13033;50.936;5.334;2023-11-21T08:25:56;75.57;;;28.00;;
25023;SDS011;13033;50.936;5.334;2023-11-21T08:28:22;87.07;;;30.90;;
25023;SDS011;13033;50.936;5.334;2023-11-21T08:30:55;81.55;;;28.27;;
25023;SDS011;13033;50.936;5.334;2023-11-21T08:33:21;79.32;;;28.77;;
25023;SDS011;13033;50.936;5.334;2023-11-21T08:35:47;83.07;;;28.75;;
25023;SDS011;13033;50.936;5.334;2023-11-21T08:38:13;79.47;;;28.10;;
25023;SDS011;13033;50.936;5.334;2023-11-21T08:40:39;77.65;;;27.73;;
25023;SDS011;13033;50.936;5.334;2023-11-21T08:43:04;73.40;;;27.45;;
25023;SDS011;13033;50.936;5.334;2023-11-21T08:45:30;74.93;;;27.27;;
25023;SDS011;13033;50.936;5.334;2023-11-21T08:47:57;83.90;;;28.67;;
25023;SDS011;13033;50.936;5.334;2023-11-21T08:50:23;76.82;;;28.13;;
25023;SDS011;13033;50.936;5.334;2023-11-21T08:52:48;69.15;;;26.67;;
25023;SDS011;13033;50.936;5.334;2023-11-21T08:55:14;67.20;;;25.02;;
25023;SDS011;13033;50.936;5.334;2023-11-21T08:57:40;80.18;;;27.00;;
25023;SDS011;13033;50.936;5.334;2023-11-21T09:00:08;72.32;;;26.17;;
25023;SDS011;13033;50.936;5.334;2023-11-21T09:02:36;70.90;;;24.55;;
25023;SDS011;13033;50.936;5.334;2023-11-21T09:05:03;61.85;;;25.75;;
25023;SDS011;13033;50.936;5.334;2023-11-21T09:07:30;57.95;;;23.30;;
25023;SDS011;13033;50.936;5.334;2023-11-21T09:09:56;64.30;;;25.77;;
25023;SDS011;13033;50.936;5.334;2023-11-21T09:12:22;57.03;;;23.02;;
25023;SDS011;13033;50.936;5.334;2023-11-21T09:14:49;58.40;;;23.30;;
25023;SDS011;13033;50.936;5.334;2023-11-21T09:17:15;48.80;;;21.33;;
25023;SDS011;13033;50.936;5.334;2023-11-21T09:19:41;56.30;;;22.15;;
25023;SDS011;13033;50.936;5.334;2023-11-21T09:22:10;52.42;;;21.92;;
25023;SDS011;13033;50.936;5.334;2023-11-21T09:24:36;48.85;;;22.30;;
25023;SDS011;13033;50.936;5.334;2023-11-21T09:27:02;47.05;;;20.88;;
25023;SDS011;13033;50.936;5.334;2023-11-21T09:29:30;50.35;;;20.90;;
25023;SDS011;13033;50.936;5.334;2023-11-21T09:31:56;42.85;;;19.38;;
25023;SDS011;13033;50.936;5.334;2023-11-21T09:34:27;42.55;;;19.75;;
25023;SDS011;13033;50.936;5.334;2023-11-21T09:36:53;43.58;;;18.77;;
25023;SDS011;13033;50.936;5.334;2023-11-21T09:39:19;42.10;;;19.13;;
25023;SDS011;13033;50.936;5.334;2023-11-21T09:41:51;39.90;;;19.60;;
25023;SDS011;13033;50.936;5.334;2023-11-21T09:44:28;37.42;;;18.15;;
25023;SDS011;13033;50.936;5.334;2023-11-21T09:47:01;40.42;;;18.02;;
25023;SDS011;13033;50.936;5.334;2023-11-21T09:49:28;40.42;;;18.70;;
25023;SDS011;13033;50.936;5.334;2023-11-21T09:52:00;40.70;;;19.15;;
25023;SDS011;13033;50.936;5.334;2023-11-21T09:54:28;39.00;;;18.73;;
25023;SDS011;13033;50.936;5.334;2023-11-21T09:56:56;38.22;;;18.65;;
25023;SDS011;13033;50.936;5.334;2023-11-21T09:59:25;46.03;;;18.48;;
25023;SDS011;13033;50.936;5.334;2023-11-21T10:01:56;40.57;;;17.77;;
25023;SDS011;13033;50.936;5.334;2023-11-21T10:04:25;41.35;;;18.65;;
25023;SDS011;13033;50.936;5.334;2023-11-21T10:06:52;38.72;;;18.33;;
25023;SDS011;13033;50.936;5.334;2023-11-21T10:09:19;40.35;;;19.42;;
25023;SDS011;13033;50.936;5.334;2023-11-21T10:11:46;39.20;;;19.23;;
25023;SDS011;13033;50.936;5.334;2023-11-21T10:14:13;36.47;;;18.65;;
25023;SDS011;13033;50.936;5.334;2023-11-21T10:16:41;35.95;;;18.35;;
25023;SDS011;13033;50.936;5.334;2023-11-21T10:19:09;45.33;;;18.13;;
25023;SDS011;13033;50.936;5.334;2023-11-21T10:21:35;36.92;;;18.23;;
25023;SDS011;13033;50.936;5.334;2023-11-21T10:24:03;41.90;;;19.45;;
25023;SDS011;13033;50.936;5.334;2023-11-21T10:26:29;40.40;;;19.70;;
25023;SDS011;13033;50.936;5.334;2023-11-21T10:31:24;45.38;;;20.40;;
25023;SDS011;13033;50.936;5.334;2023-11-21T10:33:52;46.97;;;19.58;;
25023;SDS011;13033;50.936;5.334;2023-11-21T10:36:25;42.25;;;19.35;;
25023;SDS011;13033;50.936;5.334;2023-11-21T10:38:52;47.85;;;20.10;;
25023;SDS011;13033;50.936;5.334;2023-11-21T10:41:18;45.65;;;19.95;;
25023;SDS011;13033;50.936;5.334;2023-11-21T10:43:45;48.58;;;21.15;;
25023;SDS011;13033;50.936;5.334;2023-11-21T10:46:10;50.53;;;20.38;;
25023;SDS011;13033;50.936;5.334;2023-11-21T10:48:36;55.55;;;21.27;;
25023;SDS011;13033;50.936;5.334;2023-11-21T10:51:09;48.20;;;21.52;;
25023;SDS011;13033;50.936;5.334;2023-11-21T10:53:38;47.13;;;21.48;;
25023;SDS011;13033;50.936;5.334;2023-11-21T10:56:07;52.63;;;21.55;;
25023;SDS011;13033;50.936;5.334;2023-11-21T10:58:42;46.50;;;20.73;;
25023;SDS011;13033;50.936;5.334;2023-11-21T11:01:08;52.35;;;20.88;;
25023;SDS011;13033;50.936;5.334;2023-11-21T11:03:37;47.33;;;20.83;;
25023;SDS011;13033;50.936;5.334;2023-11-21T11:06:04;45.83;;;20.55;;
25023;SDS011;13033;50.936;5.334;2023-11-21T11:08:32;42.78;;;20.20;;
25023;SDS011;13033;50.936;5.334;2023-11-21T11:11:00;43.92;;;19.65;;
25023;SDS011;13033;50.936;5.334;2023-11-21T11:13:26;46.55;;;20.45;;
25023;SDS011;13033;50.936;5.334;2023-11-21T11:15:55;45.85;;;20.52;;
25023;SDS011;13033;50.936;5.334;2023-11-21T11:18:29;42.22;;;19.50;;
25023;SDS011;13033;50.936;5.334;2023-11-21T11:21:15;43.70;;;20.25;;
25023;SDS011;13033;50.936;5.334;2023-11-21T11:24:17;45.50;;;20.05;;
25023;SDS011;13033;50.936;5.334;2023-11-21T11:35:04;45.60;;;22.25;;
25023;SDS011;13033;50.936;5.334;2023-11-21T11:37:42;44.03;;;20.38;;
25023;SDS011;13033;50.936;5.334;2023-11-21T11:40:10;45.83;;;20.70;;
25023;SDS011;13033;50.936;5.334;2023-11-21T11:42:37;50.35;;;21.05;;
25023;SDS011;13033;50.936;5.334;2023-11-21T11:45:06;50.40;;;21.38;;
25023;SDS011;13033;50.936;5.334;2023-11-21T11:47:44;64.97;;;23.52;;
25023;SDS011;13033;50.936;5.334;2023-11-21T11:50:12;53.83;;;21.55;;
25023;SDS011;13033;50.936;5.334;2023-11-21T11:52:45;55.40;;;22.80;;
25023;SDS011;13033;50.936;5.334;2023-11-21T11:55:14;78.20;;;24.67;;
25023;SDS011;13033;50.936;5.334;2023-11-21T11:57:45;73.90;;;24.88;;
25023;SDS011;13033;50.936;5.334;2023-11-21T12:00:18;65.30;;;24.10;;
25023;SDS011;13033;50.936;5.334;2023-11-21T12:02:53;64.88;;;23.42;;
25023;SDS011;13033;50.936;5.334;2023-11-21T12:05:21;76.80;;;25.95;;
25023;SDS011;13033;50.936;5.334;2023-11-21T12:08:00;225.68;;;37.10;;
25023;SDS011;13033;50.936;5.334;2023-11-21T12:10:31;82.65;;;25.05;;
25023;SDS011;13033;50.936;5.334;2023-11-21T12:13:02;93.07;;;25.50;;
25023;SDS011;13033;50.936;5.334;2023-11-21T12:15:28;107.25;;;26.75;;
25023;SDS011;13033;50.936;5.334;2023-11-21T12:17:56;67.78;;;24.00;;
25023;SDS011;13033;50.936;5.334;2023-11-21T12:20:22;66.10;;;23.30;;
25023;SDS011;13033;50.936;5.334;2023-11-21T12:22:53;56.13;;;23.67;;
25023;SDS011;13033;50.936;5.334;2023-11-21T12:25:21;57.75;;;24.58;;
25023;SDS011;13033;50.936;5.334;2023-11-21T12:27:50;55.40;;;23.15;;
25023;SDS011;13033;50.936;5.334;2023-11-21T12:30:17;53.03;;;22.10;;
25023;SDS011;13033;50.936;5.334;2023-11-21T12:32:45;59.40;;;22.33;;
25023;SDS011;13033;50.936;5.334;2023-11-21T12:35:13;60.22;;;22.05;;
25023;SDS011;13033;50.936;5.334;2023-11-21T12:37:39;51.97;;;21.80;;
25023;SDS011;13033;50.936;5.334;2023-11-21T12:40:08;47.42;;;21.95;;
25023;SDS011;13033;50.936;5.334;2023-11-21T12:42:40;51.03;;;21.38;;
25023;SDS011;13033;50.936;5.334;2023-11-21T12:45:08;46.22;;;21.65;;
25023;SDS011;13033;50.936;5.334;2023-11-21T12:47:59;49.05;;;21.63;;
25023;SDS011;13033;50.936;5.334;2023-11-21T12:50:28;46.58;;;21.85;;
25023;SDS011;13033;50.936;5.334;2023-11-21T12:53:07;43.30;;;20.30;;
25023;SDS011;13033;50.936;5.334;2023-11-21T12:55:35;55.00;;;22.27;;
25023;SDS011;13033;50.936;5.334;2023-11-21T12:58:08;49.25;;;23.33;;
25023;SDS011;13033;50.936;5.334;2023-11-21T13:00:42;45.83;;;21.08;;
25023;SDS011;13033;50.936;5.334;2023-11-21T13:03:11;48.58;;;21.73;;
25023;SDS011;13033;50.936;5.334;2023-11-21T13:05:41;46.80;;;22.70;;
25023;SDS011;13033;50.936;5.334;2023-11-21T13:08:10;43.70;;;21.33;;
25023;SDS011;13033;50.936;5.334;2023-11-21T13:10:41;49.65;;;23.20;;
25023;SDS011;13033;50.936;5.334;2023-11-21T13:13:11;53.15;;;23.23;;
25023;SDS011;13033;50.936;5.334;2023-11-21T13:15:48;72.45;;;26.77;;
25023;SDS011;13033;50.936;5.334;2023-11-21T13:18:21;51.38;;;24.77;;
25023;SDS011;13033;50.936;5.334;2023-11-21T13:20:57;55.58;;;24.20;;
25023;SDS011;13033;50.936;5.334;2023-11-21T13:23:24;49.22;;;24.20;;
25023;SDS011;13033;50.936;5.334;2023-11-21T13:25:51;50.05;;;23.48;;
25023;SDS011;13033;50.936;5.334;2023-11-21T13:28:20;51.63;;;26.15;;
25023;SDS011;13033;50.936;5.334;2023-11-21T13:30:47;58.17;;;25.70;;
25023;SDS011;13033;50.936;5.334;2023-11-21T13:33:13;54.28;;;25.42;;
25023;SDS011;13033;50.936;5.334;2023-11-21T13:35:46;50.95;;;24.45;;
25023;SDS011;13033;50.936;5.334;2023-11-21T13:38:16;47.40;;;24.50;;
25023;SDS011;13033;50.936;5.334;2023-11-21T13:40:50;51.30;;;24.38;;
25023;SDS011;13033;50.936;5.334;2023-11-21T13:43:21;44.10;;;21.58;;
25023;SDS011;13033;50.936;5.334;2023-11-21T13:45:50;36.75;;;19.80;;
25023;SDS011;13033;50.936;5.334;2023-11-21T13:48:23;37.47;;;19.15;;
25023;SDS011;13033;50.936;5.334;2023-11-21T13:50:56;34.60;;;18.02;;
25023;SDS011;13033;50.936;5.334;2023-11-21T13:53:41;37.08;;;18.27;;
25023;SDS011;13033;50.936;5.334;2023-11-21T13:56:07;35.05;;;18.00;;
25023;SDS011;13033;50.936;5.334;2023-11-21T13:58:33;37.05;;;17.60;;
25023;SDS011;13033;50.936;5.334;2023-11-21T14:01:18;34.67;;;18.02;;
25023;SDS011;13033;50.936;5.334;2023-11-21T14:03:59;32.40;;;16.75;;
25023;SDS011;13033;50.936;5.334;2023-11-21T14:06:42;38.60;;;18.00;;
25023;SDS011;13033;50.936;5.334;2023-11-21T14:09:18;34.88;;;17.88;;
25023;SDS011;13033;50.936;5.334;2023-11-21T14:11:53;34.08;;;17.48;;
25023;SDS011;13033;50.936;5.334;2023-11-21T14:14:26;37.05;;;17.80;;
25023;SDS011;13033;50.936;5.334;2023-11-21T14:16:55;37.05;;;17.70;;
25023;SDS011;13033;50.936;5.334;2023-11-21T14:19:22;30.08;;;16.98;;
25023;SDS011;13033;50.936;5.334;2023-11-21T14:21:52;32.22;;;17.17;;
25023;SDS011;13033;50.936;5.334;2023-11-21T14:24:18;30.90;;;17.08;;
25023;SDS011;13033;50.936;5.334;2023-11-21T14:26:44;28.95;;;16.27;;
25023;SDS011;13033;50.936;5.334;2023-11-21T14:29:11;27.52;;;15.35;;
25023;SDS011;13033;50.936;5.334;2023-11-21T14:31:39;33.58;;;16.38;;